Flight Track Log - Related Links

Times and Time Zones

All times are in EDT time to prevent confusion due to time zone crossing. See the N51EM flight status page for this flight to view local times or setup timezone preferences in your user account.

Time Position Orientation Groundspeed Altitude Reporting Facility
EDT Latitude Longitude Course Direction KTS MPH feet Rate Location/Type
Tue 10:09:25 PM 29.1681 -81.0853 250° West 175 201 500  Level Jacksonville Center
Tue 10:10:02 PM 29.1561 -81.1236 250° West 203 234 1,900 2,071 Climbing Jacksonville Center
Tue 10:10:49 PM 29.1631 -81.1708 280° West 216 249 3,400 2,667 Climbing Jacksonville Center
Tue 10:11:50 PM 29.2406 -81.1958 344° North 210 242 6,700 2,579 Climbing Jacksonville Center
Tue 10:12:50 PM 29.2975 -81.2353 329° Northwest 241 277 8,600 2,000 Climbing Jacksonville Center
Tue 10:13:50 PM 29.3608 -81.2889 324° Northwest 264 304 10,700 2,050 Climbing Jacksonville Center
Tue 10:14:50 PM 29.4344 -81.3308 334° Northwest 286 329 12,700 2,150 Climbing Jacksonville Center
Tue 10:15:50 PM 29.5144 -81.3914 327° Northwest 296 341 15,000 1,900 Climbing Jacksonville Center
Tue 10:16:50 PM 29.6061 -81.3853 North 305 351 16,500 1,450 Climbing Jacksonville Center
Tue 10:17:50 PM 29.7064 -81.3767 North 322 371 17,900 1,500 Climbing Jacksonville Center
Tue 10:18:50 PM 29.8061 -81.3367 19° North 346 398 19,500 1,412 Climbing Jacksonville Center
Tue 10:19:49 PM 29.9017 -81.2969 20° North 357 411 20,700 1,200 Climbing Jacksonville Center
Tue 10:20:50 PM 30.0033 -81.2567 19° North 368 423 21,900 1,100 Climbing Jacksonville Center
Tue 10:21:49 PM 30.1072 -81.2119 20° North 379 436 22,900 857 Climbing Jacksonville Center
Tue 10:22:49 PM 30.1903 -81.1767 20° North 384 442 23,600 1,094 Climbing Jacksonville Center
Tue 10:24:50 PM 30.4228 -81.0836 19° North 463 533 26,200 1,160 Climbing Jacksonville Center
Tue 10:25:50 PM 30.5308 -81.0381 20° North 434 499 27,100 950 Climbing Jacksonville Center
Tue 10:26:50 PM 30.6386 -80.9925 20° North 418 481 28,100 1,000 Climbing Jacksonville Center
Tue 10:27:50 PM 30.7506 -80.9467 19° North 418 481 29,100 1,150 Climbing Jacksonville Center
Tue 10:28:50 PM 30.8503 -80.9036 20° North 412 474 30,400 1,160 Climbing Jacksonville Center
Tue 10:29:49 PM 30.9622 -80.8625 17° North 417 480 31,400 1,059 Climbing Jacksonville Center
Tue 10:30:49 PM 31.0681 -80.8142 21° North 417 480 32,500 942 Climbing Jacksonville Center
Tue 10:31:50 PM 31.1800 -80.7728 18° North 417 480 33,300 793 Climbing Jacksonville Center
Tue 10:32:50 PM 31.2900 -80.7242 21° North 417 480 34,100 800 Climbing Jacksonville Center
Tue 10:33:50 PM 31.4017 -80.6753 20° North 423 487 34,900 450 Climbing Jacksonville Center
Tue 10:34:50 PM 31.5200 -80.6286 19° North 428 493 35,000 50 Climbing Jacksonville Center
Tue 10:35:49 PM 31.6422 -80.5767 20° North 448 516 35,000 50 Level Jacksonville Center
Tue 10:36:49 PM 31.7789 -80.5172 20° North 471 542 35,100 347 Climbing Jacksonville Center
Tue 10:37:50 PM 31.8969 -80.4675 20° North 483 556 35,700 545 Climbing Jacksonville Center
Tue 10:38:50 PM 32.0192 -80.4153 20° North 483 556 36,200 550 Climbing Jacksonville Center
Tue 10:39:50 PM 32.1453 -80.3606 20° North 483 556 36,800 650 Climbing Jacksonville Center
Tue 10:40:50 PM 32.2736 -80.3053 20° North 483 556 37,500 650 Climbing Jacksonville Center
Tue 10:41:50 PM 32.3978 -80.2525 20° North 483 556 38,100 600 Climbing Jacksonville Center
Tue 10:42:50 PM 32.5200 -80.2047 18° North 477 549 38,700 450 Climbing Jacksonville Center
Tue 10:43:50 PM 32.6467 -80.1714 12° North 466 536 39,000 150 Climbing Jacksonville Center
Tue 10:44:50 PM 32.7731 -80.1331 14° North 466 536 39,000  Level Jacksonville Center
Tue 10:45:50 PM 32.9142 -80.0867 15° North 472 543 39,000  Level Jacksonville Center
Tue 10:46:50 PM 33.0489 -80.0428 15° North 478 550 39,000  Level Jacksonville Center
Tue 10:47:50 PM 33.1836 -80.0111 11° North 488 562 39,000  Level Jacksonville Center
Tue 10:48:50 PM 33.3142 -79.9719 14° North 488 562 39,000  Level Jacksonville Center
Tue 10:49:50 PM 33.4469 -79.9328 14° North 488 562 39,000  Level Jacksonville Center
Tue 10:50:50 PM 33.5817 -79.8933 14° North 488 562 39,000  Level Jacksonville Center
Tue 10:51:50 PM 33.7122 -79.8542 14° North 488 562 39,000  Level Jacksonville Center
Tue 10:52:50 PM 33.8469 -79.8144 14° North 488 562 39,000  Level Jacksonville Center
Tue 10:53:50 PM 33.9836 -79.7744 14° North 488 562 39,000  Level Jacksonville Center
Tue 10:54:50 PM 34.1161 -79.7322 15° North 488 562 39,000  Level Jacksonville Center
Tue 10:57:05 PM 34.3994 -79.6442 14° North 495 570 39,000  Level Washington Center
Tue 10:58:03 PM 34.5364 -79.6056 13° North 495 570 39,000  Level Washington Center
Tue 10:59:04 PM 34.6714 -79.5642 14° North 495 570 39,000  Level Washington Center
Tue 11:00:04 PM 34.8125 -79.5231 13° North 500 575 39,000  Level Washington Center
Tue 11:01:04 PM 34.9494 -79.4792 15° North 500 575 39,000  Level Washington Center
Tue 11:02:05 PM 35.0844 -79.4372 14° North 500 575 39,000 -252 Level Washington Center
Tue 11:03:03 PM 35.2256 -79.3958 13° North 500 575 38,500 -756 Descending Washington Center
Tue 11:04:04 PM 35.3836 -79.3447 15° North 513 590 37,500 -893 Descending Washington Center
Tue 11:05:04 PM 35.5122 -79.3047 14° North 528 608 36,700 -807 Descending Washington Center
Tue 11:06:03 PM 35.6575 -79.2603 14° North 528 608 35,900 -800 Descending Washington Center
Tue 11:07:04 PM 35.8031 -79.2133 15° North 534 615 35,100 -400 Descending Washington Center
Tue 11:08:03 PM 35.9483 -79.1661 15° North 534 615 35,100  Level Washington Center
Tue 11:09:04 PM 36.0958 -79.1189 15° North 534 615 35,100  Level Washington Center
Tue 11:10:03 PM 36.2517 -79.0692 14° North 534 615 35,100  Level Washington Center
Tue 11:11:03 PM 36.3947 -79.0239 14° North 534 615 35,100  Level Washington Center
Tue 11:12:04 PM 36.5381 -78.9786 14° North 534 615 35,100 -400 Level Washington Center
Tue 11:13:03 PM 36.6708 -78.9325 16° North 535 616 34,300 -857 Descending Washington Center
Tue 11:14:03 PM 36.8158 -78.8869 14° North 540 621 33,400 -850 Descending Washington Center
Tue 11:15:03 PM 36.9653 -78.8386 14° North 540 621 32,600 -850 Descending Washington Center
Tue 11:16:03 PM 37.1294 -78.7856 14° North 540 621 31,700 -843 Descending Washington Center
Tue 11:17:04 PM 37.2769 -78.7369 15° North 540 621 30,900 -787 Descending Washington Center
Tue 11:18:05 PM 37.4242 -78.6881 15° North 540 621 30,100 -850 Descending Washington Center
Tue 11:19:04 PM 37.5586 -78.6464 14° North 540 621 29,200 -864 Descending Washington Center
Tue 11:20:03 PM 37.7019 -78.5972 15° North 540 621 28,400 -850 Descending Washington Center
Tue 11:21:04 PM 37.8428 -78.5500 15° North 527 606 27,500 -700 Descending Washington Center
Tue 11:22:03 PM 37.9919 -78.5006 15° North 513 590 27,000 -248 Descending Washington Center
Tue 11:23:05 PM 38.1267 -78.4531 16° North 503 579 27,000  Level Washington Center
Tue 11:24:03 PM 38.2611 -78.4106 14° North 498 573 27,000  Level Washington Center
Tue 11:25:04 PM 38.4000 -78.3603 16° North 498 573 27,000  Level Washington Center
Tue 11:26:03 PM 38.5344 -78.3147 15° North 498 573 27,000  Level Washington Center
Tue 11:27:04 PM 38.6542 -78.2739 15° North 498 573 27,000  Level Washington Center
Tue 11:28:05 PM 38.7928 -78.2258 15° North 498 573 27,000  Level Washington Center
Tue 11:29:02 PM 38.9256 -78.1639 20° North 498 573 27,000  Level Washington Center
Tue 11:30:03 PM 39.0564 -78.0831 26° Northeast 509 586 27,000 -692 Level Washington Center
Tue 11:32:04 PM 39.3144 -77.9286 25° Northeast 519 597 24,900 -1,127 Descending New York Center
Tue 11:33:04 PM 39.4381 -77.8522 26° Northeast 502 578 23,600 -1,300 Descending New York Center
Tue 11:34:04 PM 39.5594 -77.7756 26° Northeast 495 570 22,300 -1,300 Descending New York Center
Tue 11:35:04 PM 39.6761 -77.7061 25° Northeast 476 548 21,000 -1,300 Descending New York Center
Tue 11:36:04 PM 39.7911 -77.6311 27° Northeast 463 533 19,700 -1,000 Descending New York Center
Tue 11:37:04 PM 39.8683 -77.4844 56° Northeast 431 496 19,000 -350 Descending New York Center
Tue 11:38:04 PM 39.9219 -77.3433 64° Northeast 431 496 19,000  Level New York Center
Tue 11:39:04 PM 39.9797 -77.2025 62° Northeast 437 503 19,000 -600 Level New York Center
Tue 11:40:04 PM 40.0358 -77.0558 63° Northeast 442 509 17,800 -1,250 Descending New York Center
Tue 11:41:04 PM 40.0911 -76.9169 62° Northeast 442 509 16,500 -1,350 Descending New York Center
Tue 11:42:04 PM 40.1456 -76.7886 61° Northeast 415 478 15,100 -1,600 Descending New York Center
Tue 11:43:04 PM 40.1894 -76.6619 66° East 410 472 13,300 -1,750 Descending New York Center
Tue 11:44:04 PM 40.2372 -76.5381 63° Northeast 400 460 11,600 -1,700 Descending New York Center
Tue 11:45:04 PM 40.2897 -76.4036 63° Northeast 388 447 9,900 -850 Descending New York Center
Tue 11:46:04 PM 40.3325 -76.2875 64° Northeast 368 423 9,900  Level New York Center
Tue 11:47:04 PM 40.3703 -76.1922 62° Northeast 331 381 9,900 -450 Level New York Center
Tue 11:48:04 PM 40.4153 -76.0758 63° Northeast 325 374 9,000 -950 Descending New York Center
Tue 11:49:04 PM 40.4556 -75.9697 63° Northeast 320 368 8,000 -1,000 Descending New York Center
Tue 11:50:04 PM 40.4853 -75.8575 71° East 327 376 7,000 -1,000 Descending New York Center
Tue 11:51:04 PM 40.5039 -75.7633 75° East 310 357 6,000 -1,300 Descending New York Center
Tue 11:52:04 PM 40.5367 -75.6756 64° Northeast 283 326 4,400 -1,650 Descending New York Center
Tue 11:53:04 PM 40.5694 -75.5878 64° Northeast 241 277 2,700 -1,300 Descending New York Center
Tue 11:54:04 PM 40.5989 -75.5297 56° Northeast 205 236 1,800 -650 Descending New York Center
Tue 11:55:04 PM 40.6264 -75.4714 58° Northeast 183 211 1,400 2,600 Descending New York Center
Tue 11:56:04 PM 40.6556 -75.4186 54° Northeast 183 211 7,000 2,800 Climbing New York Center
Tue 11:57:04 PM 40.6825 -75.3658 56° Northeast 183 211 7,000  Level New York Center
Tue 11:58:04 PM 40.7117 -75.3131 54° Northeast 183 211 7,000  Level New York Center
Tue 11:59:04 PM 40.7275 -75.2811 57° Northeast 183 211 7,000  Level New York Center
Wed 12:00:04 AM 40.7275 -75.2811 270° West 183 211 7,000  Level New York Center
Wed 12:01:04 AM 40.7275 -75.2811 270° West 183 211 7,000  Level New York Center

Login

Don't have an account? Register now (free) for customized features, flight alerts, and more!